Time;durP1;ratioP1;P1;durP2;ratioP2;P2;SDS_P1;SDS_P2;PMS_P1;PMS_P2;Temp;Humidity;BMP_temperature;BMP_pressure;BME280_temperature;BME280_humidity;BME280_pressure;Samples;Min_cycle;Max_cycle;Signal;HPM_P1;HPM_P2
2022/06/13 00:01:34;;;;;;;43.30;12.23;;;;;;;10.33;91.26;101964.34;4935454;29;20455;-50
2022/06/13 00:04:01;;;;;;;33.95;11.60;;;;;;;10.35;91.83;101948.19;4935989;29;20055;-50
2022/06/13 00:06:27;;;;;;;37.30;11.48;;;;;;;10.38;91.93;101948.31;4935827;29;20396;-51
2022/06/13 00:08:53;;;;;;;37.17;12.40;;;;;;;10.42;92.23;101957.09;4935044;29;20494;-51
2022/06/13 00:11:22;;;;;;;32.28;11.65;;;;;;;10.47;92.87;101953.03;4936287;29;20132;-51
2022/06/13 00:13:51;;;;;;;34.78;12.20;;;;;;;10.53;92.43;101947.28;4935803;29;20038;-50
2022/06/13 00:16:17;;;;;;;37.25;12.07;;;;;;;10.54;91.96;101944.78;4935068;29;20019;-49
2022/06/13 00:18:47;;;;;;;33.97;11.40;;;;;;;10.60;92.20;101948.44;4935761;29;20436;-51
2022/06/13 00:21:14;;;;;;;34.15;12.05;;;;;;;10.60;91.99;101941.63;4935648;29;20059;-50
2022/06/13 00:23:39;;;;;;;36.95;11.73;;;;;;;10.61;91.97;101940.78;4935238;29;20027;-49
2022/06/13 00:26:04;;;;;;;35.55;11.70;;;;;;;10.60;91.58;101944.19;4935474;29;20063;-50
2022/06/13 00:28:30;;;;;;;34.70;11.07;;;;;;;10.63;92.11;101935.72;4935736;29;20043;-49
2022/06/13 00:30:55;;;;;;;35.33;12.57;;;;;;;10.60;91.71;101938.13;4934875;29;20468;-51
2022/06/13 00:33:20;;;;;;;33.40;11.32;;;;;;;10.56;92.73;101936.25;4935687;29;20024;-51
2022/06/13 00:35:45;;;;;;;33.55;13.18;;;;;;;10.60;93.10;101939.03;4934896;29;20032;-49
2022/06/13 00:38:11;;;;;;;32.25;11.57;;;;;;;10.66;93.81;101943.59;4934852;29;20376;-50
2022/06/13 00:40:36;;;;;;;35.28;12.68;;;;;;;10.73;93.51;101944.75;4935789;29;20034;-51
2022/06/13 00:43:03;;;;;;;33.22;13.07;;;;;;;10.82;92.49;101934.84;4934811;29;20030;-50
2022/06/13 00:45:34;;;;;;;30.65;11.48;;;;;;;10.94;93.13;101924.25;4935631;29;20020;-50
2022/06/13 00:48:00;;;;;;;27.13;10.70;;;;;;;10.95;92.73;101926.88;4935500;29;20487;-49
2022/06/13 00:50:27;;;;;;;28.55;10.27;;;;;;;10.97;92.38;101919.22;4934711;29;20036;-48
2022/06/13 00:52:55;;;;;;;24.67;9.98;;;;;;;11.02;91.64;101921.19;4935712;29;20038;-50
2022/06/13 00:55:29;;;;;;;30.77;10.80;;;;;;;11.01;92.06;101921.13;4935557;29;20031;-51
2022/06/13 00:57:55;;;;;;;27.52;9.77;;;;;;;11.05;91.99;101920.44;4934650;29;20036;-50
2022/06/13 01:00:21;;;;;;;22.73;9.93;;;;;;;11.10;91.86;101926.69;4935282;29;20468;-51
2022/06/13 01:02:49;;;;;;;29.10;11.27;;;;;;;11.14;91.64;101922.53;4935375;29;20039;-49
2022/06/13 01:05:19;;;;;;;29.48;10.25;;;;;;;11.16;91.88;101921.81;4934785;29;20102;-51
2022/06/13 01:07:45;;;;;;;34.05;12.80;;;;;;;11.29;90.70;101912.91;4935545;29;20027;-51
2022/06/13 01:12:54;;;;;;;40.33;13.80;;;;;;;11.52;90.21;101921.66;4934844;29;20055;-50
2022/06/13 01:15:37;;;;;;;31.15;12.40;;;;;;;11.58;89.88;101914.97;4935298;29;20027;-51
2022/06/13 01:18:15;;;;;;;38.58;14.43;;;;;;;11.68;88.43;101912.88;4934535;29;20031;-50
2022/06/13 01:20:54;;;;;;;49.13;14.07;;;;;;;11.76;87.27;101912.28;4935463;29;20110;-51
2022/06/13 01:23:47;;;;;;;42.55;14.40;;;;;;;11.82;86.90;101909.97;4935236;29;20020;-50
2022/06/13 01:26:27;;;;;;;43.35;14.18;;;;;;;11.91;86.44;101909.47;4934188;29;20103;-51
2022/06/13 01:29:11;;;;;;;35.65;13.20;;;;;;;11.97;86.27;101917.50;4935064;29;20485;-51
2022/06/13 01:31:55;;;;;;;45.33;13.50;;;;;;;12.00;86.23;101923.66;4935322;29;20031;-51
2022/06/13 01:34:23;;;;;;;37.40;13.45;;;;;;;12.06;86.28;101920.47;4934320;29;20040;-51
2022/06/13 01:37:10;;;;;;;43.78;13.27;;;;;;;12.09;85.75;101909.38;4935400;29;20023;-51
2022/06/13 01:40:01;;;;;;;40.75;14.35;;;;;;;12.13;85.52;101906.97;4934501;29;20031;-51
2022/06/13 01:42:40;;;;;;;38.15;13.25;;;;;;;12.20;85.38;101900.34;4935032;29;20111;-51
2022/06/13 01:45:17;;;;;;;32.38;13.50;;;;;;;12.21;85.36;101893.47;4935183;29;20035;-50
2022/06/13 01:47:56;;;;;;;36.67;13.40;;;;;;;12.23;85.16;101899.59;4934855;29;20140;-51
2022/06/13 01:50:30;;;;;;;43.10;14.38;;;;;;;12.27;85.40;101898.88;4938405;29;20032;-51
2022/06/13 01:53:20;;;;;;;33.80;13.43;;;;;;;12.31;85.25;101906.81;4938235;29;20483;-49
2022/06/13 01:55:58;;;;;;;36.60;13.00;;;;;;;12.28;85.96;101905.84;4938559;29;20031;-50
2022/06/13 01:58:28;;;;;;;37.33;14.30;;;;;;;12.31;86.73;101914.56;4938227;29;20042;-51
2022/06/13 02:01:06;;;;;;;39.20;13.10;;;;;;;12.33;85.54;101906.88;4937504;29;20063;-50
2022/06/13 02:03:39;;;;;;;30.92;13.82;;;;;;;12.37;85.17;101911.34;4938242;29;20055;-51
2022/06/13 02:06:12;;;;;;;37.15;13.98;;;;;;;12.39;85.23;101909.69;4938271;29;20032;-51
2022/06/13 02:08:44;;;;;;;36.85;13.32;;;;;;;12.39;85.44;101909.69;4937479;29;20079;-52
2022/06/13 02:11:31;;;;;;;33.35;12.95;;;;;;;12.46;84.91;101915.97;4937875;29;21028;-51
2022/06/13 02:14:03;;;;;;;49.85;15.30;;;;;;;12.50;84.92;101916.19;4937859;29;20499;-51
2022/06/13 02:16:39;;;;;;;40.90;13.90;;;;;;;12.53;84.72;101918.00;4937413;29;20028;-51
2022/06/13 02:19:15;;;;;;;37.88;13.55;;;;;;;12.55;84.95;101920.63;4937843;29;20038;-51
2022/06/13 02:21:47;;;;;;;42.63;13.95;;;;;;;12.56;85.38;101922.41;4937020;29;20031;-49
2022/06/13 02:24:17;;;;;;;26.13;12.98;;;;;;;12.58;85.71;101921.66;4937502;29;20055;-51
2022/06/13 02:26:48;;;;;;;44.20;13.25;;;;;;;12.63;85.24;101919.25;4937717;29;20059;-50
2022/06/13 02:29:27;;;;;;;33.58;13.77;;;;;;;12.67;84.50;101906.47;4937047;29;20041;-51
2022/06/13 02:32:08;;;;;;;35.80;14.25;;;;;;;12.73;85.33;101910.13;4937667;29;20036;-50
2022/06/13 02:34:45;;;;;;;42.90;13.88;;;;;;;12.73;85.33;101902.34;4937485;29;20062;-52
2022/06/13 02:37:25;;;;;;;43.90;14.43;;;;;;;12.73;84.85;101895.50;4936853;29;20026;-51
2022/06/13 02:40:03;;;;;;;42.15;14.00;;;;;;;12.73;84.97;101902.34;4937591;29;20042;-50
2022/06/13 02:42:35;;;;;;;37.88;13.98;;;;;;;12.71;85.44;101901.44;4936688;29;20052;-51
2022/06/13 02:45:00;;;;;;;48.55;15.35;;;;;;;12.70;84.87;101895.34;4937271;29;20032;-51
2022/06/13 02:47:58;;;;;;;51.73;15.20;;;;;;;12.72;84.49;101898.00;4937507;29;20027;-51
2022/06/13 02:50:31;;;;;;;48.88;14.85;;;;;;;12.68;85.03;101897.03;4936144;29;20287;-51
2022/06/13 02:53:25;;;;;;;45.20;14.90;;;;;;;12.66;85.02;101903.84;4937352;29;20114;-51
2022/06/13 02:56:27;;;;;;;43.55;14.88;;;;;;;12.63;85.04;101903.72;4937140;29;20487;-50
2022/06/13 02:59:21;;;;;;;49.83;15.32;;;;;;;12.57;85.88;101901.78;4936993;29;20031;-50
2022/06/13 03:01:50;;;;;;;48.67;15.60;;;;;;;12.50;85.92;101895.50;4936807;29;20062;-51
2022/06/13 03:04:35;;;;;;;48.80;15.65;;;;;;;12.47;86.33;101892.81;4936388;29;20031;-51
2022/06/13 03:07:03;;;;;;;41.60;14.75;;;;;;;12.41;86.30;101895.13;4936789;29;20495;-49
2022/06/13 03:10:14;;;;;;;51.63;16.23;;;;;;;12.42;86.30;101896.91;4936939;29;20036;-51
2022/06/13 03:12:46;;;;;;;47.75;16.00;;;;;;;12.39;87.00;101891.59;4936063;29;20095;-51
2022/06/13 03:15:24;;;;;;;42.72;15.73;;;;;;;12.39;86.56;101896.78;4936758;29;20032;-50
2022/06/13 03:17:58;;;;;;;49.13;17.33;;;;;;;12.39;87.11;101898.50;4935875;29;20043;-51
2022/06/13 03:20:35;;;;;;;44.33;17.25;;;;;;;12.39;86.80;101896.78;4936644;29;20099;-50
2022/06/13 03:23:23;;;;;;;50.15;17.10;;;;;;;12.41;86.64;101907.16;4936794;29;20433;-51
2022/06/13 03:26:09;;;;;;;60.08;18.27;;;;;;;12.39;86.67;101901.06;4935647;29;20063;-49
2022/06/13 03:28:58;;;;;;;51.35;18.13;;;;;;;12.38;86.58;101897.59;4936618;29;20115;-49
2022/06/13 03:31:36;;;;;;;54.60;18.73;;;;;;;12.37;87.10;101897.53;4936663;29;20035;-49
2022/06/13 03:34:06;;;;;;;46.55;17.58;;;;;;;12.32;87.56;101897.38;4936556;29;20024;-51
2022/06/13 03:36:43;;;;;;;56.70;17.92;;;;;;;12.27;87.60;101907.50;4936657;29;20032;-49
2022/06/13 03:39:31;;;;;;;58.55;18.50;;;;;;;12.24;87.77;101914.25;4935335;29;20403;-48
2022/06/13 03:42:04;;;;;;;54.58;18.65;;;;;;;12.15;88.71;101915.66;4936307;29;20467;-51
2022/06/13 03:44:30;;;;;;;55.55;19.98;;;;;;;12.12;88.78;101920.72;4936388;29;20107;-53
2022/06/13 03:47:00;;;;;;;54.05;19.67;;;;;;;12.05;89.24;101918.69;4935470;29;20127;-48
2022/06/13 03:49:35;;;;;;;53.75;20.10;;;;;;;12.00;89.47;101918.50;4936197;29;20028;-52
2022/06/13 03:52:03;;;;;;;64.35;19.67;;;;;;;11.98;89.88;101916.66;4936006;29;20365;-49
2022/06/13 03:54:36;;;;;;;48.10;18.75;;;;;;;11.96;90.19;101919.19;4935506;29;20036;-51
2022/06/13 03:57:26;;;;;;;58.08;20.83;;;;;;;11.95;90.11;101922.59;4936073;29;20032;-49
2022/06/13 03:59:56;;;;;;;62.38;20.35;;;;;;;11.91;90.81;101930.13;4935149;29;20483;-51
2022/06/13 04:02:26;;;;;;;57.67;20.60;;;;;;;11.90;91.37;101925.78;4935937;29;20424;-48
2022/06/13 04:04:53;;;;;;;52.95;20.45;;;;;;;11.88;91.66;101935.16;4935745;29;20380;-51
2022/06/13 04:07:21;;;;;;;60.22;20.65;;;;;;;11.85;91.80;101931.66;4935270;29;20055;-51
2022/06/13 04:09:51;;;;;;;52.83;20.63;;;;;;;11.80;91.86;101925.41;4936010;29;20106;-50
2022/06/13 04:12:21;;;;;;;55.78;20.52;;;;;;;11.75;91.53;101933.75;4935768;29;20040;-51
2022/06/13 04:15:00;;;;;;;63.70;21.23;;;;;;;11.73;92.24;101931.13;4935160;29;20036;-52
2022/06/13 04:18:02;;;;;;;56.95;20.73;;;;;;;11.70;91.85;101936.16;4935690;29;20432;-49
2022/06/13 04:20:30;;;;;;;73.30;22.67;;;;;;;11.65;92.66;101937.69;4915555;29;20047;-51
2022/06/13 04:23:21;;;;;;;57.20;23.52;;;;;;;11.62;92.49;101935.84;4934762;29;20365;-50
2022/06/13 04:25:53;;;;;;;67.88;22.90;;;;;;;11.59;93.74;101939.97;4932529;29;20056;-49
2022/06/13 04:28:24;;;;;;;71.70;22.90;;;;;;;11.59;93.66;101934.81;4934981;29;20082;-50
2022/06/13 04:30:53;;;;;;;60.38;21.88;;;;;;;11.60;93.88;101939.19;4935701;29;20026;-50
2022/06/13 04:33:40;;;;;;;61.58;22.02;;;;;;;11.63;93.38;101947.03;4935763;29;20385;-49
2022/06/13 04:36:09;;;;;;;62.70;23.23;;;;;;;11.66;94.11;101950.66;4934940;29;20039;-48
2022/06/13 04:38:36;;;;;;;68.75;23.98;;;;;;;11.72;94.20;101951.72;4935884;29;20043;-49
2022/06/13 04:41:04;;;;;;;75.10;25.17;;;;;;;11.76;94.29;101946.75;4935555;29;20043;-48
2022/06/13 04:43:35;;;;;;;;;;;;;;;11.85;91.74;101946.25;4935121;29;20046;-50
2022/06/13 04:46:05;;;;;;;62.13;23.88;;;;;;;11.91;93.68;101948.22;4935347;29;19915;-48
2022/06/13 04:48:32;;;;;;;64.57;24.73;;;;;;;11.97;93.87;101951.97;4935635;29;20028;-50
2022/06/13 04:51:01;;;;;;;70.43;25.35;;;;;;;12.02;93.43;101959.94;4934673;29;20028;-49
2022/06/13 04:53:34;;;;;;;67.30;24.67;;;;;;;12.06;93.70;101955.75;4935480;29;20052;-51
2022/06/13 04:55:59;;;;;;;67.30;25.02;;;;;;;12.14;93.74;101962.13;4934859;29;20124;-50
2022/06/13 04:58:35;;;;;;;67.18;23.10;;;;;;;12.19;94.05;101958.91;4935167;29;20049;-51
2022/06/13 05:01:28;;;;;;;78.32;24.10;;;;;;;12.32;93.52;101964.59;4935505;29;20032;-50
2022/06/13 05:03:55;;;;;;;67.00;24.35;;;;;;;12.41;93.02;101959.78;4933528;29;20038;-50
2022/06/13 05:06:30;;;;;;;73.53;24.73;;;;;;;12.48;92.91;101955.72;4935240;29;20488;-49
2022/06/13 05:09:05;;;;;;;68.07;23.85;;;;;;;12.55;92.85;101962.91;4935165;29;20122;-51
2022/06/13 05:11:51;;;;;;;68.93;23.27;;;;;;;12.62;92.84;101967.47;4934637;29;20063;-51
2022/06/13 05:14:26;;;;;;;68.47;24.63;;;;;;;12.69;92.36;101971.19;4935307;29;20122;-48
2022/06/13 05:16:59;;;;;;;57.47;23.70;;;;;;;12.77;91.85;101974.06;4935299;29;20043;-51
2022/06/13 05:19:52;;;;;;;70.10;22.92;;;;;;;12.87;91.63;101975.31;4934658;29;20046;-50
2022/06/13 05:22:40;;;;;;;63.50;23.08;;;;;;;12.93;91.69;101978.16;4935344;29;20087;-49
2022/06/13 05:25:26;;;;;;;69.22;24.00;;;;;;;13.01;90.96;101979.31;4937984;29;20064;-51
2022/06/13 05:27:53;;;;;;;65.97;23.35;;;;;;;13.05;91.09;101976.00;4938819;29;20016;-51
2022/06/13 05:30:20;;;;;;;64.53;21.10;;;;;;;13.10;90.81;101981.38;4938726;29;20424;-50
2022/06/13 05:32:45;;;;;;;64.57;21.98;;;;;;;13.11;90.63;101981.41;4937944;29;20811;-50
2022/06/13 05:35:17;;;;;;;57.53;21.88;;;;;;;13.15;90.48;101992.78;4938499;29;20027;-51
2022/06/13 05:37:42;;;;;;;57.55;20.52;;;;;;;13.23;90.70;102000.81;4938552;29;20115;-50
2022/06/13 05:40:20;;;;;;;67.38;23.17;;;;;;;13.32;90.55;101990.81;4937488;29;20559;-51
2022/06/13 05:42:46;;;;;;;60.13;21.55;;;;;;;13.42;90.12;101992.94;4938743;29;20097;-50
2022/06/13 05:45:17;;;;;;;66.32;22.10;;;;;;;13.52;89.59;102001.03;4938017;29;20476;-52
2022/06/13 05:47:45;;;;;;;63.30;21.63;;;;;;;13.59;89.29;102005.63;4938652;29;20043;-51
2022/06/13 05:50:30;;;;;;;62.83;22.00;;;;;;;13.69;89.00;102007.72;4938290;29;20098;-48
2022/06/13 05:52:55;;;;;;;54.22;20.60;;;;;;;13.82;88.85;102004.72;4937688;29;20028;-51
2022/06/13 05:55:21;;;;;;;58.90;20.83;;;;;;;13.92;88.54;102007.66;4938170;29;20111;-52
2022/06/13 05:57:46;;;;;;;61.67;20.98;;;;;;;14.06;88.07;102008.09;4938378;29;20027;-51
2022/06/13 06:00:22;;;;;;;59.28;19.60;;;;;;;14.18;86.57;102012.81;4937157;29;20031;-51
2022/06/13 06:02:48;;;;;;;54.42;18.88;;;;;;;14.37;85.94;102010.00;4938195;29;20031;-51
2022/06/13 06:05:13;;;;;;;55.05;18.38;;;;;;;14.43;84.80;102020.56;4937845;29;20040;-51
2022/06/13 06:07:39;;;;;;;60.38;16.42;;;;;;;14.57;83.14;102015.81;4937659;29;20028;-51
2022/06/13 06:10:05;;;;;;;52.15;16.10;;;;;;;14.68;83.21;102018.81;4938159;29;20050;-51
2022/06/13 06:12:31;;;;;;;55.13;16.05;;;;;;;14.78;82.39;102022.56;4937963;29;20034;-51
2022/06/13 06:14:56;;;;;;;52.85;15.20;;;;;;;14.87;82.62;102027.16;4937552;29;20182;-51
2022/06/13 06:17:21;;;;;;;50.00;12.15;;;;;;;14.84;80.17;102033.13;4937648;29;20399;-51
2022/06/13 06:19:46;;;;;;;36.30;11.98;;;;;;;14.75;78.90;102035.44;4938025;29;20027;-50
2022/06/13 06:22:13;;;;;;;41.70;11.13;;;;;;;14.70;79.06;102034.41;4936829;29;20024;-53
2022/06/13 06:24:38;;;;;;;45.08;12.93;;;;;;;14.75;80.65;102041.50;4937958;29;20102;-48
2022/06/13 06:27:04;;;;;;;32.35;10.88;;;;;;;14.80;79.24;102045.13;4937487;29;20131;-47
2022/06/13 06:29:29;;;;;;;39.38;11.55;;;;;;;14.90;80.20;102048.00;4936936;29;20027;-49
2022/06/13 06:31:55;;;;;;;35.65;11.15;;;;;;;15.09;79.82;102050.34;4937482;29;20066;-47
2022/06/13 06:34:20;;;;;;;44.50;12.00;;;;;;;15.30;78.93;102049.22;4936389;29;20436;-50
2022/06/13 06:36:45;;;;;;;34.53;10.25;;;;;;;15.46;80.23;102055.75;4936856;29;20052;-47
2022/06/13 06:39:11;;;;;;;33.70;7.22;;;;;;;15.43;71.03;102056.53;4937349;29;20030;-47
2022/06/13 06:41:36;;;;;;;21.80;6.13;;;;;;;15.29;69.09;102057.84;4936861;29;20032;-47
2022/06/13 06:44:01;;;;;;;17.27;4.82;;;;;;;15.07;67.04;102061.53;4937422;29;20031;-50
2022/06/13 06:46:27;;;;;;;24.40;6.18;;;;;;;14.93;70.70;102058.50;4937223;29;20034;-46
2022/06/13 06:48:52;;;;;;;26.90;5.43;;;;;;;14.83;68.68;102065.09;4936272;29;20447;-48
2022/06/13 06:51:18;;;;;;;24.35;5.47;;;;;;;14.87;72.23;102071.28;4937047;29;20027;-46
2022/06/13 07:01:58;;;;;;;24.58;4.85;;;;;;;15.33;68.33;102075.28;4937502;29;20042;-47
2022/06/13 07:04:23;;;;;;;28.27;5.13;;;;;;;15.33;66.46;102079.59;4936227;29;20024;-46
2022/06/13 07:06:48;;;;;;;25.92;5.82;;;;;;;15.23;64.90;102074.13;4937098;29;20027;-49
2022/06/13 07:09:13;;;;;;;15.50;4.00;;;;;;;15.15;64.53;102076.47;4936832;29;20023;-47
2022/06/13 07:11:54;;;;;;;16.77;3.85;;;;;;;15.11;64.83;102078.94;4936089;29;20584;-46
2022/06/13 07:14:20;;;;;;;16.20;4.25;;;;;;;15.11;65.82;102077.22;4936993;29;20027;-47
2022/06/13 07:16:46;;;;;;;14.48;4.30;;;;;;;15.09;67.06;102071.13;4935986;29;20416;-48
2022/06/13 07:19:12;;;;;;;20.20;4.10;;;;;;;15.13;66.77;102067.78;4936872;29;20039;-48
2022/06/13 07:21:37;;;;;;;16.80;3.85;;;;;;;15.20;66.04;102073.16;4936714;29;20035;-46
2022/06/13 07:24:03;;;;;;;20.60;4.20;;;;;;;15.36;68.47;102075.38;4935709;29;20042;-47
2022/06/13 07:26:28;;;;;;;26.63;4.25;;;;;;;15.65;68.55;102077.94;4936290;29;20051;-47
2022/06/13 07:28:54;;;;;;;23.77;4.68;;;;;;;15.89;63.59;102075.16;4936751;29;20115;-46
2022/06/13 07:31:23;;;;;;;24.20;6.20;;;;;;;16.27;63.71;102090.03;4935658;29;20357;-46
2022/06/13 07:33:50;;;;;;;17.05;4.65;;;;;;;16.51;63.68;102083.69;4936539;29;20543;-47
2022/06/13 07:36:16;;;;;;;19.77;4.18;;;;;;;16.54;61.59;102069.03;4936497;29;20042;-46
2022/06/13 07:38:41;;;;;;;22.70;4.25;;;;;;;16.51;61.29;102081.94;4935530;29;20063;-49
2022/06/13 07:41:13;;;;;;;28.02;4.85;;;;;;;16.50;63.64;102079.31;4936344;29;20080;-47
2022/06/13 07:43:38;;;;;;;25.13;5.18;;;;;;;16.45;62.59;102080.09;4936358;29;20067;-46
2022/06/13 07:46:06;;;;;;;20.77;5.00;;;;;;;16.42;60.68;102081.72;4935258;29;20051;-47
2022/06/13 07:48:32;;;;;;;19.58;5.47;;;;;;;16.30;62.26;102084.91;4936163;29;20483;-47
2022/06/13 07:50:58;;;;;;;17.85;5.30;;;;;;;16.36;65.01;102087.66;4936242;29;20027;-46
2022/06/13 07:53:24;;;;;;;24.50;5.30;;;;;;;16.33;63.03;102084.09;4935416;29;20046;-47
2022/06/13 07:55:49;;;;;;;19.73;4.47;;;;;;;16.34;62.86;102091.94;4936063;29;20075;-48
2022/06/13 07:58:17;;;;;;;21.50;5.00;;;;;;;16.27;61.96;102093.50;4936147;29;20067;-48
2022/06/13 08:00:45;;;;;;;21.35;4.95;;;;;;;16.39;61.81;102099.88;4935447;29;20055;-47
2022/06/13 08:03:15;;;;;;;;;;;;;;;16.52;64.13;102106.28;4936281;29;20024;-47
2022/06/13 08:05:40;;;;;;;20.13;4.65;;;;;;;16.61;62.74;102106.50;4936031;29;19914;-47
2022/06/13 08:08:05;;;;;;;23.05;5.10;;;;;;;16.90;64.77;102104.63;4935021;29;20043;-48
2022/06/13 08:10:31;;;;;;;22.05;4.35;;;;;;;17.10;61.99;102112.03;4936015;29;20079;-48
2022/06/13 08:12:57;;;;;;;22.08;4.65;;;;;;;17.15;59.25;102123.44;4935238;29;20554;-49
2022/06/13 08:15:24;;;;;;;24.17;5.72;;;;;;;17.29;61.45;102123.75;4936079;29;20472;-46
2022/06/13 08:17:49;;;;;;;14.85;4.20;;;;;;;17.34;58.65;102127.34;4935724;29;20046;-47
2022/06/13 08:20:14;;;;;;;17.05;4.72;;;;;;;17.38;58.95;102129.16;4935016;29;20547;-47
2022/06/13 08:22:42;;;;;;;12.98;3.78;;;;;;;17.43;59.92;102127.53;4935798;29;20044;-47
2022/06/13 08:25:08;;;;;;;17.30;3.85;;;;;;;17.55;57.57;102132.13;4935495;29;20051;-49
2022/06/13 08:27:33;;;;;;;15.95;3.38;;;;;;;17.50;57.81;102141.56;4935171;29;20028;-47
2022/06/13 08:29:59;;;;;;;18.17;3.72;;;;;;;17.22;56.57;102137.47;4935624;29;20032;-47
2022/06/13 08:32:24;;;;;;;17.48;4.20;;;;;;;16.96;58.45;102135.16;4935647;29;20059;-48
2022/06/13 08:34:50;;;;;;;19.38;4.53;;;;;;;16.81;60.38;102137.34;4934740;29;20063;-51
2022/06/13 08:37:15;;;;;;;20.33;3.70;;;;;;;16.76;60.00;102143.31;4935626;29;20019;-48
2022/06/13 08:39:40;;;;;;;16.73;3.85;;;;;;;16.81;61.65;102139.94;4935799;29;20039;-47
2022/06/13 08:42:14;;;;;;;15.30;3.65;;;;;;;16.89;61.32;102139.28;4934587;29;20100;-50
2022/06/13 08:44:49;;;;;;;15.00;3.75;;;;;;;17.03;62.31;102147.47;4935566;29;20496;-47
2022/06/13 08:47:40;;;;;;;23.63;4.10;;;;;;;17.10;61.81;102144.16;4935426;29;20392;-46
2022/06/13 08:50:15;;;;;;;15.18;2.97;;;;;;;17.37;58.87;102156.06;4934638;29;20380;-47
2022/06/13 08:52:49;;;;;;;12.15;2.90;;;;;;;17.71;58.41;102143.75;4935432;29;20464;-48
2022/06/13 08:55:27;;;;;;;10.68;2.85;;;;;;;18.02;55.50;102149.63;4934722;29;20112;-47
2022/06/13 08:58:14;;;;;;;15.55;2.97;;;;;;;18.30;57.86;102152.75;4935802;29;20038;-47
2022/06/13 09:00:47;;;;;;;9.57;2.55;;;;;;;18.25;56.26;102151.78;4939521;29;20078;-48
2022/06/13 09:03:34;;;;;;;23.02;3.47;;;;;;;18.38;56.04;102159.00;4938251;29;20468;-48
2022/06/13 09:06:17;;;;;;;;;;;;;;;18.41;55.03;102160.78;4939576;29;20143;-47
2022/06/13 09:08:48;;;;;;;11.57;2.85;;;;;;;17.90;54.14;102159.78;4939434;29;19915;-47
2022/06/13 09:11:31;;;;;;;15.00;2.30;;;;;;;17.81;55.48;102167.44;4938343;29;20107;-50
2022/06/13 09:14:10;;;;;;;20.67;3.63;;;;;;;17.74;57.07;102172.50;4938981;29;20471;-49
2022/06/13 09:16:36;;;;;;;14.65;2.83;;;;;;;18.10;57.40;102168.94;4938300;29;20075;-47
2022/06/13 09:19:20;;;;;;;11.15;2.97;;;;;;;18.26;55.32;102174.44;4939001;29;20036;-47
2022/06/13 09:22:03;;;;;;;10.13;2.45;;;;;;;18.18;53.74;102176.91;4939065;29;20035;-47
2022/06/13 09:24:49;;;;;;;12.15;2.83;;;;;;;18.28;56.01;102175.31;4938177;29;20033;-47
2022/06/13 09:28:00;;;;;;;14.40;2.90;;;;;;;18.27;54.78;102177.06;4938594;29;20135;-47
2022/06/13 09:30:35;;;;;;;17.85;3.15;;;;;;;18.10;54.36;102181.97;4921612;29;20115;-47
2022/06/13 09:33:11;;;;;;;15.40;3.33;;;;;;;18.24;57.37;102184.84;4938704;29;20027;-48
2022/06/13 09:36:02;;;;;;;22.85;3.67;;;;;;;18.50;54.77;102178.34;4938697;29;20067;-48
2022/06/13 09:38:45;;;;;;;21.30;3.30;;;;;;;18.46;54.17;102192.19;4937406;29;20043;-49
2022/06/13 09:41:54;;;;;;;21.40;3.13;;;;;;;18.31;54.35;102182.34;4938474;29;20020;-47
2022/06/13 09:44:40;;;;;;;13.38;2.92;;;;;;;18.25;53.82;102193.53;4937394;29;20443;-47
2022/06/13 09:47:46;;;;;;;10.45;2.53;;;;;;;18.43;53.13;102187.78;4938321;29;20464;-47
2022/06/13 09:50:32;;;;;;;13.77;2.65;;;;;;;18.90;51.79;102185.19;4938143;29;20055;-48
2022/06/13 09:53:22;;;;;;;24.00;3.50;;;;;;;19.39;51.00;102187.66;4937389;29;20027;-47
2022/06/13 09:55:54;;;;;;;12.60;2.63;;;;;;;19.41;48.89;102191.16;4938501;29;20090;-46
2022/06/13 09:58:44;;;;;;;13.13;2.40;;;;;;;19.55;52.28;102185.28;4938156;29;20038;-47
2022/06/13 10:01:27;;;;;;;12.40;2.40;;;;;;;20.11;49.22;102192.09;4938169;29;20031;-48
2022/06/13 10:04:20;;;;;;;11.82;2.40;;;;;;;20.19;47.32;102200.03;4938121;29;20052;-49
2022/06/13 10:07:22;;;;;;;11.40;2.10;;;;;;;20.12;49.60;102199.09;4936966;29;20040;-47
2022/06/13 10:09:47;;;;;;;9.88;2.30;;;;;;;20.52;48.32;102199.50;4937735;29;20428;-48
2022/06/13 10:12:31;;;;;;;10.77;1.70;;;;;;;20.72;47.92;102202.34;4937898;29;20023;-51
2022/06/13 10:15:16;;;;;;;18.25;2.50;;;;;;;20.53;46.80;102205.66;4937921;29;20036;-48
2022/06/13 10:18:11;;;;;;;6.70;1.70;;;;;;;20.53;47.34;102203.03;4938069;29;20031;-51
2022/06/13 10:20:57;;;;;;;15.30;2.65;;;;;;;21.19;48.70;102197.50;4937190;29;20028;-50
2022/06/13 10:23:25;;;;;;;13.65;2.10;;;;;;;21.49;45.61;102207.28;4937758;29;20159;-49
2022/06/13 10:26:24;;;;;;;13.52;2.25;;;;;;;22.34;46.08;102201.53;4937638;29;20063;-51
2022/06/13 10:29:22;;;;;;;8.40;1.92;;;;;;;22.92;42.72;102218.25;4936762;29;20035;-49
2022/06/13 10:32:15;;;;;;;15.10;2.38;;;;;;;22.29;41.32;102214.63;4937660;29;20039;-48
2022/06/13 10:35:08;;;;;;;13.10;2.42;;;;;;;21.34;44.18;102210.69;4926110;29;20122;-53
2022/06/13 10:37:49;;;;;;;14.75;2.35;;;;;;;21.77;45.22;102212.72;4937496;29;20475;-50
2022/06/13 10:40:16;;;;;;;11.60;2.72;;;;;;;22.27;43.51;102203.28;4937559;29;20039;-49
2022/06/13 10:42:41;;;;;;;8.95;2.50;;;;;;;23.37;41.45;102212.97;4936977;29;20027;-49
2022/06/13 10:45:10;;;;;;;8.65;2.40;;;;;;;24.31;37.82;102218.78;4937389;29;20408;-51
2022/06/13 10:47:48;;;;;;;11.05;2.42;;;;;;;25.16;40.75;102206.72;4937593;29;20028;-51
2022/06/13 10:50:32;;;;;;;11.15;2.95;;;;;;;26.08;36.15;102217.16;4937221;29;20024;-50
2022/06/13 10:53:02;;;;;;;8.20;1.92;;;;;;;25.60;33.17;102210.69;4937137;29;20416;-51
2022/06/13 10:55:33;;;;;;;7.15;1.88;;;;;;;25.11;34.32;102216.44;4936552;29;20032;-52
2022/06/13 10:58:09;;;;;;;5.55;1.88;;;;;;;24.53;35.91;102223.94;4937034;29;20087;-51
2022/06/13 11:00:34;;;;;;;12.13;2.35;;;;;;;23.71;37.41;102216.41;4937272;29;20038;-50
2022/06/13 11:03:14;;;;;;;12.90;2.20;;;;;;;23.63;38.60;102212.94;4936219;29;20032;-52
2022/06/13 11:05:50;;;;;;;9.13;1.98;;;;;;;24.21;36.88;102210.94;4937317;29;20035;-52
2022/06/13 11:08:15;;;;;;;11.20;2.05;;;;;;;24.35;38.04;102216.13;4937017;29;20032;-51
2022/06/13 11:10:50;;;;;;;6.45;1.67;;;;;;;23.83;38.29;102216.38;4936241;29;20112;-51
2022/06/13 11:13:24;;;;;;;7.88;2.33;;;;;;;23.37;37.44;102223.50;4936969;29;20091;-52
2022/06/13 11:24:54;;;;;;;9.32;1.85;;;;;;;26.07;33.95;102218.94;4936379;29;20088;-55
2022/06/13 11:27:40;;;;;;;12.48;2.15;;;;;;;24.98;33.47;102210.41;4936434;29;20392;-54
2022/06/13 11:30:27;;;;;;;14.25;2.42;;;;;;;24.67;34.39;102215.06;4935636;29;20479;-54
2022/06/13 11:33:06;;;;;;;;;;;;;;;24.50;36.01;102221.28;4937086;29;20043;-54
2022/06/13 11:35:46;;;;;;;7.43;1.90;;;;;;;22.87;37.46;102226.16;4936514;29;19922;-54
2022/06/13 11:38:20;;;;;;;8.25;2.08;;;;;;;21.88;37.77;102220.63;4935486;29;20086;-54
2022/06/13 11:40:56;;;;;;;12.07;2.42;;;;;;;21.42;39.98;102223.88;4936680;29;20070;-54
2022/06/13 11:43:31;;;;;;;10.43;2.83;;;;;;;20.93;43.08;102224.38;4936468;29;20095;-53
2022/06/13 11:46:02;;;;;;;8.15;2.20;;;;;;;20.53;45.98;102222.22;4935606;29;20042;-53
2022/06/13 11:48:28;;;;;;;12.02;2.85;;;;;;;20.04;46.04;102229.53;4936259;29;20034;-53
2022/06/13 11:51:01;;;;;;;13.43;2.55;;;;;;;20.47;43.53;102221.28;4936122;29;20024;-53
2022/06/13 11:53:37;;;;;;;14.35;3.03;;;;;;;21.84;42.79;102221.50;4936375;29;20024;-53
2022/06/13 11:56:07;;;;;;;10.68;2.25;;;;;;;23.11;37.04;102220.00;4936226;29;20032;-54
2022/06/13 11:58:37;;;;;;;6.38;1.88;;;;;;;23.85;35.97;102213.72;4935544;29;20020;-54
2022/06/13 12:01:25;;;;;;;11.13;2.47;;;;;;;24.01;37.65;102219.81;4936132;29;20054;-54
2022/06/13 12:04:09;;;;;;;9.10;2.67;;;;;;;23.76;39.04;102219.03;4935779;29;20034;-54
2022/06/13 12:06:41;;;;;;;10.73;3.33;;;;;;;23.12;40.07;102227.00;4935408;29;20048;-54